RJST(METAR)
02/28 07:09
RJST 272209Z 36005KT 9999 FEW020 BKN040 M05/M08 Q1028 RMK
1CU020 5SC040 A3038=
戻る
トップページへ戻る
IMOC Co,.Ltd.